Time;durP1;ratioP1;P1;durP2;ratioP2;P2;SDS_P1;SDS_P2;PMS_P1;PMS_P2;Temp;Humidity;BMP_temperature;BMP_pressure;BME280_temperature;BME280_humidity;BME280_pressure;Samples;Min_cycle;Max_cycle;Signal;HPM_P1;HPM_P2
2021/11/07 04:06:41;;;;;;;13.67;12.37;;;9.80;98.30;;;;;;4784052;24;20433;-84
2021/11/07 04:09:11;;;;;;;12.83;11.07;;;9.80;98.30;;;;;;4802854;24;20471;-84
2021/11/07 04:11:41;;;;;;;11.80;10.70;;;9.80;98.30;;;;;;4950961;23;20831;-84
2021/11/07 04:14:13;;;;;;;11.60;10.50;;;9.80;98.30;;;;;;5026737;23;20513;-85
2021/11/07 04:16:18;;;;;;;10.33;9.43;;;9.80;98.30;;;;;;5139067;22;20508;-84
2021/11/07 04:18:21;;;;;;;8.50;7.50;;;9.90;98.30;;;;;;5171985;23;20421;-84
2021/11/07 04:20:48;;;;;;;9.30;8.40;;;9.90;98.30;;;;;;5172448;23;20521;-83
2021/11/07 04:22:53;;;;;;;9.80;8.23;;;9.90;98.30;;;;;;5181108;22;20806;-82
2021/11/07 04:24:56;;;;;;;9.03;7.70;;;9.90;98.30;;;;;;5172376;22;20456;-85
2021/11/07 04:26:59;;;;;;;10.33;8.27;;;9.80;98.30;;;;;;5172813;23;20430;-85
2021/11/07 04:29:02;;;;;;;9.10;8.20;;;9.90;98.30;;;;;;5173638;22;20429;-85
2021/11/07 04:31:07;;;;;;;10.47;6.57;;;9.90;98.30;;;;;;5172412;22;20450;-83
2021/11/07 04:33:12;;;;;;;10.63;7.70;;;9.90;98.30;;;;;;5180814;22;20457;-83
2021/11/07 04:35:15;;;;;;;10.03;6.50;;;9.90;98.30;;;;;;5181410;22;20452;-85
2021/11/07 04:37:20;;;;;;;8.00;6.03;;;9.90;98.30;;;;;;5180385;22;20746;-83
2021/11/07 04:39:26;;;;;;;8.27;6.87;;;9.90;98.30;;;;;;5180230;22;20433;-83
2021/11/07 04:41:33;;;;;;;9.67;7.10;;;10.00;98.30;;;;;;5171893;23;20467;-84
2021/11/07 04:43:36;;;;;;;9.43;5.67;;;9.90;98.30;;;;;;5180518;22;20516;-82
2021/11/07 04:45:42;;;;;;;6.73;5.00;;;10.00;98.30;;;;;;5174230;22;21028;-83
2021/11/07 04:47:47;;;;;;;6.67;5.97;;;10.00;98.30;;;;;;5172193;23;20509;-85
2021/11/07 04:49:54;;;;;;;7.97;5.13;;;10.00;98.30;;;;;;5182162;22;20422;-84
2021/11/07 04:52:01;;;;;;;6.57;4.80;;;10.00;98.30;;;;;;5173071;22;20432;-85
2021/11/07 04:54:32;;;;;;;5.67;3.70;;;10.00;98.30;;;;;;5181928;23;20638;-84
2021/11/07 04:56:45;;;;;;;6.77;5.87;;;10.00;98.30;;;;;;5182280;23;20455;-84
2021/11/07 04:58:48;;;;;;;5.67;4.20;;;10.00;98.30;;;;;;5173442;22;20430;-82
2021/11/07 05:00:52;;;;;;;12.63;5.13;;;10.00;98.30;;;;;;5169767;22;20939;-81
2021/11/07 05:02:55;;;;;;;15.07;3.93;;;10.00;98.30;;;;;;5180785;22;20508;-84
2021/11/07 05:04:58;;;;;;;11.03;4.07;;;10.10;98.30;;;;;;5184257;22;20428;-84
2021/11/07 05:07:02;;;;;;;8.37;4.13;;;10.00;98.30;;;;;;5187095;22;20432;-86
2021/11/07 05:09:05;;;;;;;7.37;4.20;;;10.00;98.30;;;;;;5180155;22;20431;-85
2021/11/07 05:11:10;;;;;;;8.70;3.50;;;10.00;98.30;;;;;;5185944;22;20422;-85
2021/11/07 05:13:13;;;;;;;10.80;3.30;;;10.00;98.30;;;;;;5176665;22;20474;-84
2021/11/07 05:15:17;;;;;;;15.90;4.53;;;10.00;98.30;;;;;;5173129;22;20765;-83
2021/11/07 05:17:20;;;;;;;5.97;3.30;;;10.00;98.30;;;;;;5180922;22;20833;-84
2021/11/07 05:19:23;;;;;;;10.67;3.57;;;10.00;98.30;;;;;;5180634;22;20414;-84
2021/11/07 05:21:26;;;;;;;8.47;3.50;;;10.00;98.30;;;;;;5181702;22;20552;-84
2021/11/07 05:23:33;;;;;;;8.90;4.00;;;10.00;98.30;;;;;;5172903;22;20475;-84
2021/11/07 05:25:36;;;;;;;13.67;3.40;;;10.00;98.30;;;;;;5181910;22;20437;-84
2021/11/07 05:27:41;;;;;;;11.53;3.83;;;9.90;98.30;;;;;;5171898;22;20432;-83
2021/11/07 05:29:44;;;;;;;8.43;3.23;;;9.90;98.30;;;;;;5172709;22;20436;-83
2021/11/07 05:31:47;;;;;;;14.27;4.07;;;9.90;98.30;;;;;;5173555;22;20910;-85
2021/11/07 05:33:50;;;;;;;6.83;3.53;;;9.90;98.30;;;;;;5174674;22;20548;-83
2021/11/07 05:35:53;;;;;;;12.40;4.43;;;9.90;98.30;;;;;;5173522;22;20903;-83
2021/11/07 05:37:56;;;;;;;11.80;4.57;;;9.90;98.30;;;;;;5182045;22;20423;-83
2021/11/07 05:39:59;;;;;;;9.67;3.90;;;9.90;98.30;;;;;;5174030;22;20511;-86
2021/11/07 05:42:02;;;;;;;10.73;3.73;;;9.90;98.30;;;;;;5173020;22;20446;-84
2021/11/07 05:44:06;;;;;;;11.30;3.00;;;9.90;98.30;;;;;;5173206;22;20798;-85
2021/11/07 05:46:10;;;;;;;14.57;3.20;;;9.80;98.30;;;;;;5181509;22;20436;-84
2021/11/07 05:48:13;;;;;;;9.60;3.87;;;9.80;98.30;;;;;;5172386;22;20796;-84
2021/11/07 05:50:17;;;;;;;12.30;3.60;;;9.80;98.30;;;;;;5180983;22;20424;-84
2021/11/07 05:52:19;;;;;;;9.73;4.30;;;9.80;98.30;;;;;;5181415;22;20485;-84
2021/11/07 05:54:22;;;;;;;7.63;3.10;;;9.80;98.30;;;;;;5182282;22;20452;-84
2021/11/07 05:56:25;;;;;;;15.40;4.47;;;9.80;98.30;;;;;;5173524;22;20490;-84
2021/11/07 05:58:29;;;;;;;9.93;3.40;;;9.70;98.30;;;;;;5181615;22;20425;-84
2021/11/07 06:00:34;;;;;;;18.30;3.27;;;9.70;98.30;;;;;;5173353;22;20437;-84
2021/11/07 06:02:38;;;;;;;11.40;4.53;;;9.70;98.30;;;;;;5183728;22;20451;-85
2021/11/07 06:04:48;;;;;;;11.17;3.80;;;9.70;98.30;;;;;;5176176;23;20409;-84
2021/11/07 06:06:54;;;;;;;11.40;4.13;;;9.70;98.30;;;;;;5184414;23;20722;-84
2021/11/07 06:08:57;;;;;;;9.17;3.77;;;9.70;98.30;;;;;;5183044;22;20805;-84
2021/11/07 06:11:00;;;;;;;9.33;4.07;;;9.70;98.30;;;;;;5176030;23;20613;-84
2021/11/07 06:13:04;;;;;;;16.83;5.13;;;9.70;98.30;;;;;;5175936;22;20453;-85
2021/11/07 06:15:09;;;;;;;15.23;3.67;;;9.70;98.30;;;;;;5174895;22;20426;-82
2021/11/07 06:17:13;;;;;;;12.17;3.50;;;9.70;98.30;;;;;;5176519;22;20427;-84
2021/11/07 06:19:16;;;;;;;10.90;4.00;;;9.70;98.30;;;;;;5184586;22;20425;-85
2021/11/07 06:21:21;;;;;;;13.97;5.40;;;9.80;98.30;;;;;;5176195;22;20474;-84
2021/11/07 06:23:24;;;;;;;16.17;4.80;;;9.80;98.30;;;;;;5175571;22;20451;-85
2021/11/07 06:25:27;;;;;;;14.40;5.00;;;9.80;98.30;;;;;;5175080;22;20504;-84
2021/11/07 06:27:35;;;;;;;9.30;3.80;;;9.70;98.30;;;;;;5183708;23;20404;-84
2021/11/07 06:29:40;;;;;;;17.53;3.43;;;9.70;98.30;;;;;;5175099;23;20424;-85
2021/11/07 06:31:43;;;;;;;14.23;4.33;;;9.80;98.30;;;;;;5177713;23;20421;-84
2021/11/07 06:33:47;;;;;;;13.27;4.00;;;9.80;98.30;;;;;;5187714;22;20441;-83
2021/11/07 06:35:50;;;;;;;16.47;4.03;;;9.80;98.30;;;;;;5178707;22;20429;-83
2021/11/07 06:37:54;;;;;;;9.17;3.33;;;9.80;98.30;;;;;;5184236;23;20455;-85
2021/11/07 06:39:57;;;;;;;9.10;4.27;;;9.90;98.30;;;;;;5184322;22;20421;-82
2021/11/07 06:42:00;;;;;;;19.80;4.20;;;9.80;98.30;;;;;;5176182;22;20507;-82
2021/11/07 06:44:03;;;;;;;12.63;4.50;;;9.80;98.30;;;;;;5177142;22;20448;-83
2021/11/07 06:46:29;;;;;;;13.70;3.67;;;9.80;98.30;;;;;;5176905;23;20397;-83
2021/11/07 06:48:34;;;;;;;20.87;5.37;;;9.90;98.30;;;;;;5175939;22;20425;-84
2021/11/07 06:50:39;;;;;;;11.27;4.40;;;9.90;98.30;;;;;;5184322;22;20450;-83
2021/11/07 06:52:43;;;;;;;11.57;3.70;;;9.90;98.30;;;;;;5175392;22;20451;-84
2021/11/07 06:54:46;;;;;;;15.80;4.53;;;9.90;98.30;;;;;;5174730;22;20911;-84
2021/11/07 06:56:49;;;;;;;12.23;4.60;;;9.90;98.30;;;;;;5175490;22;20524;-83
2021/11/07 06:58:52;;;;;;;13.60;5.07;;;9.90;98.30;;;;;;5175857;23;20745;-86
2021/11/07 07:00:55;;;;;;;16.33;4.40;;;9.90;98.30;;;;;;5184373;22;20443;-84
2021/11/07 07:02:58;;;;;;;16.47;6.73;;;9.90;98.30;;;;;;5184156;22;20480;-83
2021/11/07 07:05:03;;;;;;;25.13;3.73;;;10.00;98.30;;;;;;5184468;22;20487;-84
2021/11/07 07:07:08;;;;;;;12.20;4.30;;;10.00;98.30;;;;;;5176164;23;20749;-84
2021/11/07 07:09:13;;;;;;;12.17;4.93;;;10.00;98.30;;;;;;5175776;23;20489;-86
2021/11/07 07:11:24;;;;;;;19.13;5.33;;;10.00;98.30;;;;;;5176568;22;20437;-83
2021/11/07 07:13:31;;;;;;;11.47;4.50;;;10.00;98.30;;;;;;5177574;22;20457;-87
2021/11/07 07:17:59;;;;;;;10.37;3.33;;;9.70;98.30;;;;;;5173420;22;20428;-84
2021/11/07 07:20:19;;;;;;;10.63;3.60;;;9.40;98.30;;;;;;5178156;23;20436;-85
2021/11/07 07:22:44;;;;;;;7.47;3.07;;;9.30;98.30;;;;;;5179578;22;20453;-84
2021/11/07 07:25:07;;;;;;;11.57;3.70;;;9.30;98.30;;;;;;5179607;23;20416;-84
2021/11/07 07:29:51;;;;;;;6.77;3.63;;;9.30;98.30;;;;;;5145739;22;20429;-84
2021/11/07 07:34:20;;;;;;;10.00;3.60;;;9.40;98.30;;;;;;5163106;23;20435;-86
2021/11/07 07:37:11;;;;;;;21.27;4.30;;;9.40;98.30;;;;;;5187602;22;20471;-86
2021/11/07 07:39:26;;;;;;;10.33;4.00;;;9.40;98.30;;;;;;5078655;23;20547;-85
2021/11/07 07:41:30;;;;;;;14.73;4.90;;;9.30;98.30;;;;;;5154460;22;20499;-84
2021/11/07 07:43:41;;;;;;;9.23;3.80;;;9.20;98.30;;;;;;5175858;22;20486;-85
2021/11/07 07:45:46;;;;;;;13.40;4.20;;;9.20;98.30;;;;;;5173725;23;20416;-86
2021/11/07 07:48:02;;;;;;;25.87;5.03;;;9.20;98.30;;;;;;5175317;22;20431;-85
2021/11/07 07:50:06;;;;;;;9.87;3.93;;;9.10;98.30;;;;;;5181754;22;20416;-85
2021/11/07 07:52:09;;;;;;;17.37;4.80;;;9.10;98.30;;;;;;5171385;22;20428;-85
2021/11/07 07:54:14;;;;;;;10.77;4.00;;;9.00;98.30;;;;;;5180201;22;20428;-85
2021/11/07 07:56:21;;;;;;;11.70;3.77;;;9.00;98.30;;;;;;5179260;22;20490;-86
2021/11/07 07:58:24;;;;;;;10.83;4.10;;;9.00;98.30;;;;;;5178252;23;20427;-84
2021/11/07 08:00:30;;;;;;;7.43;3.60;;;9.00;98.30;;;;;;5178922;22;20429;-83
2021/11/07 08:02:33;;;;;;;7.43;3.53;;;9.00;98.30;;;;;;5178101;22;20974;-83
2021/11/07 08:04:36;;;;;;;15.63;4.40;;;9.00;98.30;;;;;;5178837;22;20413;-84
2021/11/07 08:06:39;;;;;;;13.23;3.80;;;9.00;98.30;;;;;;5170382;22;20432;-85
2021/11/07 08:08:43;;;;;;;9.50;4.07;;;9.10;98.30;;;;;;5170362;22;20957;-85
2021/11/07 08:10:50;;;;;;;16.80;6.70;;;9.30;98.30;;;;;;5170684;23;20492;-83
2021/11/07 08:12:54;;;;;;;10.83;4.57;;;9.30;98.30;;;;;;5171448;22;20446;-84
2021/11/07 08:15:00;;;;;;;12.60;3.90;;;9.40;98.30;;;;;;5170859;23;20512;-86
2021/11/07 08:17:03;;;;;;;11.40;3.47;;;9.40;98.30;;;;;;5178326;22;20417;-84
2021/11/07 08:19:07;;;;;;;12.43;4.50;;;9.40;98.30;;;;;;5178645;22;20471;-84
2021/11/07 08:21:10;;;;;;;10.17;3.20;;;9.50;98.30;;;;;;5178787;22;20428;-85
2021/11/07 08:23:15;;;;;;;10.80;4.93;;;9.70;98.30;;;;;;5177917;22;20447;-83
2021/11/07 08:25:21;;;;;;;12.50;3.70;;;9.90;98.30;;;;;;5176960;22;20456;-84
2021/11/07 08:27:25;;;;;;;12.40;4.60;;;9.90;98.30;;;;;;5177387;22;20803;-87
2021/11/07 08:29:33;;;;;;;13.03;4.00;;;9.80;98.30;;;;;;5181500;22;20489;-86
2021/11/07 08:31:40;;;;;;;11.03;3.20;;;9.90;98.30;;;;;;5177832;22;20805;-84
2021/11/07 08:33:43;;;;;;;16.73;4.43;;;9.80;98.30;;;;;;5177377;22;20665;-84
2021/11/07 08:35:49;;;;;;;15.20;3.77;;;10.00;98.30;;;;;;5177989;22;20424;-87
2021/11/07 08:37:57;;;;;;;10.33;3.77;;;10.30;98.30;;;;;;5177113;22;20449;-88
2021/11/07 08:40:04;;;;;;;5.60;3.30;;;10.50;98.30;;;;;;5177761;23;20452;-85
2021/11/07 08:42:14;;;;;;;7.80;3.07;;;10.60;98.30;;;;;;5181971;22;20427;-88
2021/11/07 09:02:31;;;;;;;11.20;3.23;;;8.10;98.30;;;;;;5177609;22;20441;-87
2021/11/07 09:04:42;;;;;;;4.87;2.63;;;8.10;98.30;;;;;;5178362;22;20458;-85
2021/11/07 09:06:59;;;;;;;5.27;2.80;;;8.10;98.30;;;;;;5168219;23;20423;-84
2021/11/07 09:09:08;;;;;;;5.40;2.77;;;8.20;98.30;;;;;;5168829;22;20439;-84
2021/11/07 09:11:12;;;;;;;7.60;3.27;;;8.20;98.30;;;;;;5177556;23;20411;-84
2021/11/07 09:13:16;;;;;;;7.87;3.17;;;8.20;98.30;;;;;;5177939;22;20442;-84
2021/11/07 09:15:22;;;;;;;6.83;3.27;;;8.30;98.30;;;;;;5169591;22;20801;-86
2021/11/07 09:17:27;;;;;;;15.40;4.30;;;8.30;98.30;;;;;;5168444;23;20507;-89
2021/11/07 09:19:32;;;;;;;8.63;4.10;;;8.40;98.30;;;;;;5176699;22;20794;-85
2021/11/07 09:21:45;;;;;;;10.20;3.80;;;8.50;98.30;;;;;;5179357;23;20408;-86
2021/11/07 09:23:50;;;;;;;11.33;4.13;;;8.50;98.30;;;;;;5177245;22;20446;-85
2021/11/07 09:26:14;;;;;;;10.87;3.90;;;8.60;98.30;;;;;;5178048;23;20408;-84
2021/11/07 09:28:22;;;;;;;12.70;4.10;;;8.60;98.30;;;;;;5177061;23;20873;-85
2021/11/07 09:30:28;;;;;;;9.73;3.43;;;8.60;98.30;;;;;;5181532;22;20431;-85
2021/11/07 09:32:40;;;;;;;7.97;3.23;;;8.50;98.30;;;;;;5181040;22;20459;-87
2021/11/07 09:34:48;;;;;;;11.07;3.43;;;8.50;98.30;;;;;;5190415;22;20442;-85
2021/11/07 09:37:12;;;;;;;6.10;2.73;;;8.50;98.30;;;;;;5183097;22;20953;-85
2021/11/07 09:39:20;;;;;;;9.03;3.87;;;8.50;98.30;;;;;;5191296;23;20488;-84
2021/11/07 09:41:32;;;;;;;12.30;3.50;;;8.60;98.30;;;;;;5190518;22;20423;-86
2021/11/07 09:43:42;;;;;;;6.37;2.83;;;8.70;98.30;;;;;;5183829;22;20452;-85
2021/11/07 09:45:53;;;;;;;8.93;3.40;;;8.80;98.30;;;;;;5193684;22;20416;-86
2021/11/07 09:48:13;;;;;;;16.20;3.37;;;9.10;98.30;;;;;;5195051;23;20415;-88
2021/11/07 09:50:19;;;;;;;8.23;3.57;;;9.60;98.30;;;;;;5194634;22;20424;-84
2021/11/07 09:52:24;;;;;;;8.47;3.30;;;9.90;98.30;;;;;;5195556;22;20390;-86
2021/11/07 09:54:34;;;;;;;11.37;3.70;;;9.90;98.30;;;;;;5197661;23;20468;-89
2021/11/07 09:56:38;;;;;;;9.10;3.53;;;10.10;98.30;;;;;;5196493;22;20459;-86
2021/11/07 09:58:50;;;;;;;12.50;4.00;;;10.20;98.30;;;;;;5196732;22;20432;-84
2021/11/07 10:00:58;;;;;;;7.93;3.30;;;10.30;98.30;;;;;;5195126;22;20436;-89
2021/11/07 10:03:01;;;;;;;15.27;3.87;;;10.60;98.30;;;;;;5195025;22;20446;-88
2021/11/07 10:05:06;;;;;;;7.40;3.37;;;10.80;98.30;;;;;;5194963;22;20439;-88
2021/11/07 10:07:14;;;;;;;11.23;3.50;;;11.10;98.30;;;;;;5194192;22;20739;-89
2021/11/07 10:09:30;;;;;;;13.37;4.70;;;11.20;98.30;;;;;;5192308;22;20755;-87
2021/11/07 10:11:37;;;;;;;9.40;3.73;;;11.30;98.30;;;;;;5196185;22;20454;-87
2021/11/07 10:13:58;;;;;;;10.17;3.73;;;11.50;98.30;;;;;;5194699;22;20441;-85
2021/11/07 10:16:31;;;;;;;16.70;4.50;;;11.70;98.30;;;;;;5195063;23;20389;-89
2021/11/07 10:18:42;;;;;;;13.23;4.07;;;11.90;98.30;;;;;;5194681;22;20426;-87
2021/11/07 10:20:59;;;;;;;11.90;3.73;;;12.00;98.30;;;;;;5194803;23;20434;-84
2021/11/07 10:23:13;;;;;;;8.20;3.07;;;11.80;98.30;;;;;;5195026;22;20445;-88
2021/11/07 10:25:24;;;;;;;8.30;3.43;;;11.50;98.30;;;;;;5195478;23;20398;-88
2021/11/07 10:27:39;;;;;;;8.70;3.63;;;11.50;98.30;;;;;;5186904;23;20897;-87
2021/11/07 10:29:45;;;;;;;8.50;3.33;;;11.30;98.30;;;;;;5193813;22;20471;-88
2021/11/07 10:31:56;;;;;;;12.17;3.77;;;11.00;98.30;;;;;;5194838;23;20409;-89
2021/11/07 10:41:43;;;;;;;7.87;3.27;;;10.50;98.30;;;;;;5157221;22;20474;-89
2021/11/07 10:46:53;;;;;;;7.40;3.50;;;10.30;98.30;;;;;;5196439;23;20425;-88
2021/11/07 10:53:57;;;;;;;11.93;3.80;;;10.30;98.30;;;;;;5195079;22;20436;-87
2021/11/07 10:56:03;;;;;;;5.83;3.30;;;10.10;98.30;;;;;;5193374;22;20440;-87
2021/11/07 10:58:08;;;;;;;11.57;4.63;;;9.90;98.30;;;;;;5187881;23;20436;-86
2021/11/07 11:00:26;;;;;;;13.50;3.90;;;9.80;98.30;;;;;;5191679;22;20449;-88
2021/11/07 11:02:48;;;;;;;8.43;3.30;;;9.70;98.30;;;;;;5192142;22;20447;-89
2021/11/07 11:05:09;;;;;;;8.80;3.10;;;9.70;98.30;;;;;;5192695;22;20459;-87
2021/11/07 11:07:13;;;;;;;19.97;4.57;;;9.60;98.30;;;;;;5193005;23;20496;-88
2021/11/07 11:09:17;;;;;;;14.40;4.00;;;9.70;98.30;;;;;;5192103;22;20432;-87
2021/11/07 11:11:25;;;;;;;13.43;3.83;;;9.70;98.30;;;;;;5194021;22;20438;-89
2021/11/07 11:13:44;;;;;;;15.63;4.10;;;10.00;98.30;;;;;;5192488;22;20468;-89
2021/11/07 11:16:24;;;;;;;13.07;3.87;;;10.40;98.30;;;;;;5192034;22;21059;-90
2021/11/07 11:18:46;;;;;;;20.90;3.90;;;11.20;98.30;;;;;;5191494;22;20425;-90
2021/11/07 11:21:13;;;;;;;12.40;3.90;;;11.90;98.30;;;;;;5191311;22;20420;-88
2021/11/07 11:23:48;;;;;;;12.03;4.50;;;11.60;98.30;;;;;;5190613;22;20444;-85
2021/11/07 11:26:35;;;;;;;10.13;3.40;;;11.10;98.30;;;;;;5192497;23;20416;-88
2021/11/07 11:28:48;;;;;;;12.60;3.57;;;10.80;98.30;;;;;;5193359;23;20420;-87
2021/11/07 11:31:08;;;;;;;11.43;3.50;;;10.60;98.30;;;;;;5195724;22;20415;-89
2021/11/07 11:33:16;;;;;;;11.80;3.53;;;10.20;98.30;;;;;;5195282;22;20468;-88
2021/11/07 11:35:29;;;;;;;8.20;2.90;;;10.10;98.30;;;;;;5195259;23;20411;-89
2021/11/07 11:37:48;;;;;;;7.23;3.23;;;10.10;98.30;;;;;;5193328;22;20410;-89
2021/11/07 11:40:04;;;;;;;12.43;2.93;;;10.00;98.30;;;;;;5194809;23;20732;-89
2021/11/07 11:42:24;;;;;;;7.00;3.00;;;10.10;98.30;;;;;;5194020;22;20414;-87
2021/11/07 11:44:32;;;;;;;5.83;2.83;;;10.10;98.30;;;;;;5194251;23;20458;-89
2021/11/07 11:46:46;;;;;;;7.53;3.60;;;10.20;98.30;;;;;;5195779;22;20448;-90
2021/11/07 11:51:43;;;;;;;8.57;2.97;;;10.70;98.30;;;;;;5183154;23;20413;-85
2021/11/07 11:54:25;;;;;;;8.03;3.03;;;11.20;98.30;;;;;;5182943;22;20441;-88
2021/11/07 11:56:34;;;;;;;8.30;3.63;;;12.30;98.30;;;;;;5183074;23;20479;-87
2021/11/07 11:58:45;;;;;;;9.43;3.00;;;13.20;98.30;;;;;;5183242;22;20429;-90
2021/11/07 12:00:55;;;;;;;10.63;3.57;;;14.00;98.30;;;;;;5181291;23;20414;-88
2021/11/07 12:03:16;;;;;;;11.70;4.27;;;14.40;98.30;;;;;;5182974;22;20502;-89
2021/11/07 12:05:33;;;;;;;12.13;3.30;;;13.60;98.30;;;;;;5182715;23;20463;-90
2021/11/07 12:08:13;;;;;;;6.13;2.67;;;12.80;98.30;;;;;;5183675;23;20429;-87
2021/11/07 12:10:41;;;;;;;7.00;3.07;;;12.70;98.30;;;;;;5160371;23;20439;-86
2021/11/07 12:13:01;;;;;;;6.93;3.30;;;13.20;98.30;;;;;;5158689;23;20441;-86
2021/11/07 12:15:16;;;;;;;7.23;2.97;;;13.50;98.30;;;;;;5158842;23;20446;-87
2021/11/07 12:17:29;;;;;;;9.90;5.27;;;14.00;98.30;;;;;;5159433;23;20490;-88
2021/11/07 12:19:43;;;;;;;14.70;6.77;;;14.60;98.30;;;;;;5154359;23;20483;-87
2021/11/07 12:22:22;;;;;;;8.40;3.97;;;15.10;98.30;;;;;;5156970;23;20420;-89
2021/11/07 12:24:33;;;;;;;8.90;3.53;;;14.80;98.30;;;;;;5154642;23;20447;-88
2021/11/07 12:26:52;;;;;;;14.80;3.73;;;14.60;98.30;;;;;;5156500;23;20436;-87
2021/11/07 12:28:59;;;;;;;10.77;4.27;;;13.70;98.30;;;;;;5158503;23;20428;-86
2021/11/07 12:31:12;;;;;;;10.50;3.27;;;12.50;98.30;;;;;;5159165;23;20434;-90
2021/11/07 12:33:23;;;;;;;9.30;3.30;;;12.20;98.30;;;;;;5158790;23;20452;-87
2021/11/07 12:35:33;;;;;;;20.73;4.30;;;13.00;98.30;;;;;;5154216;23;20404;-87
2021/11/07 12:42:26;;;;;;;13.63;4.23;;;15.10;98.30;;;;;;5156879;23;20450;-87
2021/11/07 12:44:31;;;;;;;12.83;4.07;;;13.70;98.30;;;;;;5156449;23;20431;-87
2021/11/07 12:46:47;;;;;;;12.57;3.90;;;12.80;98.30;;;;;;5155308;23;20425;-86
2021/11/07 12:48:52;;;;;;;15.40;5.30;;;12.30;98.30;;;;;;5155855;23;20431;-88
2021/11/07 12:51:01;;;;;;;14.80;4.80;;;12.10;98.30;;;;;;5155727;23;20433;-86
2021/11/07 12:53:07;;;;;;;17.00;5.50;;;11.90;98.30;;;;;;5151329;23;20937;-86
2021/11/07 12:55:31;;;;;;;14.67;4.20;;;11.70;98.30;;;;;;5153008;23;20439;-86
2021/11/07 12:57:43;;;;;;;14.60;5.07;;;11.60;98.30;;;;;;5159070;23;20427;-87
2021/11/07 12:59:50;;;;;;;8.70;3.17;;;11.50;98.30;;;;;;5156619;23;20908;-87
2021/11/07 13:02:16;;;;;;;6.60;2.40;;;11.10;98.30;;;;;;5156369;23;20402;-87
2021/11/07 13:04:23;;;;;;;7.00;2.83;;;10.70;98.30;;;;;;5156071;23;20496;-86
2021/11/07 13:06:34;;;;;;;5.97;2.80;;;10.50;98.30;;;;;;5153906;23;20483;-86
2021/11/07 13:08:43;;;;;;;5.30;2.77;;;10.50;98.30;;;;;;5151637;23;20433;-86
2021/11/07 13:10:55;;;;;;;5.77;3.10;;;10.50;98.30;;;;;;5151317;23;20512;-86
2021/11/07 13:13:09;;;;;;;8.33;2.90;;;10.80;98.30;;;;;;5149941;23;20485;-86
2021/11/07 13:23:13;;;;;;;11.40;4.70;;;12.40;98.30;;;;;;5076106;23;20448;-86
2021/11/07 13:25:32;;;;;;;10.80;4.03;;;12.10;98.30;;;;;;5149724;23;20971;-86
2021/11/07 13:27:55;;;;;;;9.80;3.50;;;11.80;98.30;;;;;;5152390;23;20499;-86
2021/11/07 13:30:06;;;;;;;7.90;3.80;;;11.60;98.30;;;;;;5161956;23;20553;-89
2021/11/07 13:35:34;;;;;;;14.20;3.73;;;11.00;98.30;;;;;;5049975;23;20432;-87
2021/11/07 13:37:54;;;;;;;7.57;3.60;;;10.70;98.30;;;;;;5139643;23;20425;-87
2021/11/07 13:40:10;;;;;;;8.53;3.50;;;10.40;98.30;;;;;;5148204;23;20435;-87
2021/11/07 13:42:18;;;;;;;12.70;3.90;;;10.30;98.30;;;;;;5155185;23;20417;-86
2021/11/07 13:44:46;;;;;;;5.37;3.10;;;10.30;98.30;;;;;;5156268;23;20755;-87
2021/11/07 13:47:00;;;;;;;12.47;4.10;;;10.30;98.30;;;;;;5146008;23;20447;-85
2021/11/07 13:49:23;;;;;;;12.37;3.20;;;10.20;98.30;;;;;;5144688;23;20433;-86
2021/11/07 13:51:36;;;;;;;5.40;3.07;;;10.10;98.30;;;;;;5153485;23;20983;-86
2021/11/07 13:53:42;;;;;;;10.00;3.93;;;10.00;98.30;;;;;;5154443;23;20450;-87
2021/11/07 13:55:55;;;;;;;9.33;3.93;;;9.90;98.30;;;;;;5156237;23;20898;-85
2021/11/07 13:58:12;;;;;;;8.47;2.87;;;9.80;98.30;;;;;;5158082;23;20422;-87
2021/11/07 14:00:20;;;;;;;5.80;2.93;;;9.70;98.30;;;;;;5157609;23;20478;-87
2021/11/07 14:02:26;;;;;;;9.40;2.50;;;9.60;98.30;;;;;;5156722;23;20488;-87
2021/11/07 14:04:43;;;;;;;7.03;3.30;;;9.60;98.30;;;;;;5157988;23;20432;-87
2021/11/07 14:06:47;;;;;;;4.53;3.13;;;9.60;98.30;;;;;;5154365;23;20508;-87
2021/11/07 14:08:56;;;;;;;11.20;3.40;;;9.60;98.30;;;;;;5156326;23;20452;-87
2021/11/07 14:11:04;;;;;;;10.23;3.60;;;9.60;98.30;;;;;;5156538;23;20460;-88
2021/11/07 14:13:16;;;;;;;10.67;4.07;;;9.60;98.30;;;;;;5162296;23;20449;-87
2021/11/07 14:15:31;;;;;;;9.07;3.37;;;9.50;98.30;;;;;;5170706;23;20475;-87
2021/11/07 14:18:11;;;;;;;;;;;;;;;;;;;;;
2021/11/07 14:31:31;;;;;;;11.20;3.97;;;9.40;98.30;;;;;;4896085;24;20441;-87
2021/11/07 14:34:37;;;;;;;9.23;4.27;;;9.30;98.30;;;;;;4951195;24;20450;-88
2021/11/07 14:36:58;;;;;;;11.13;4.80;;;9.20;98.30;;;;;;5022142;23;20422;-88
2021/11/07 14:39:36;;;;;;;13.40;5.00;;;9.20;98.30;;;;;;5039197;23;21134;-91
2021/11/07 14:42:03;;;;;;;14.33;4.83;;;9.20;98.30;;;;;;5068176;23;20434;-86
2021/11/07 14:44:38;;;;;;;8.43;4.23;;;9.20;98.30;;;;;;5118683;23;20461;-89
2021/11/07 14:47:25;;;;;;;14.13;6.27;;;9.10;98.30;;;;;;5155768;23;20450;-88
2021/11/07 14:55:04;;;;;;;9.57;4.53;;;9.20;98.30;;;;;;5088106;23;20428;-88
2021/11/07 15:00:33;;;;;;;12.57;5.20;;;9.10;98.30;;;;;;5112913;23;20799;-87
2021/11/07 15:03:20;;;;;;;10.73;4.70;;;9.10;98.30;;;;;;5147625;23;20773;-87
2021/11/07 15:05:37;;;;;;;23.57;10.67;;;9.10;98.30;;;;;;5157725;23;20425;-86
2021/11/07 15:07:50;;;;;;;8.90;4.00;;;9.00;98.30;;;;;;5156488;23;20989;-87
2021/11/07 15:10:13;;;;;;;11.30;4.50;;;9.00;98.30;;;;;;5155410;23;21240;-86
2021/11/07 15:12:34;;;;;;;8.60;3.80;;;9.00;98.30;;;;;;5157599;23;20421;-88
2021/11/07 15:14:48;;;;;;;14.00;8.30;;;9.00;98.30;;;;;;5157791;23;20426;-87
2021/11/07 15:17:03;;;;;;;11.10;4.40;;;9.00;98.30;;;;;;5156814;23;20428;-86
2021/11/07 15:19:28;;;;;;;11.27;3.90;;;9.00;98.30;;;;;;5150641;23;20447;-88
2021/11/07 15:24:23;;;;;;;10.57;4.00;;;8.90;98.30;;;;;;5106899;23;20435;-86
2021/11/07 15:26:31;;;;;;;11.03;3.73;;;8.80;98.30;;;;;;5149250;23;20437;-86
2021/11/07 15:28:35;;;;;;;6.80;3.57;;;8.90;98.30;;;;;;5157404;23;20478;-88
2021/11/07 15:30:41;;;;;;;6.87;3.27;;;8.80;98.30;;;;;;5158363;23;20431;-88
2021/11/07 15:32:45;;;;;;;7.70;3.53;;;8.80;98.30;;;;;;5156874;23;20449;-83
2021/11/07 15:34:58;;;;;;;9.83;4.00;;;8.80;98.30;;;;;;5157692;23;20452;-87
2021/11/07 15:37:02;;;;;;;10.77;4.93;;;8.90;98.30;;;;;;5149073;23;20911;-86
2021/11/07 15:39:12;;;;;;;8.77;4.00;;;8.90;98.30;;;;;;5158040;23;20445;-88
2021/11/07 15:41:19;;;;;;;10.97;3.90;;;8.80;98.30;;;;;;5158803;23;20460;-89
2021/11/07 15:43:23;;;;;;;15.80;4.40;;;8.90;98.30;;;;;;5149187;23;20477;-88
2021/11/07 15:45:29;;;;;;;14.43;4.20;;;8.80;98.30;;;;;;5158263;23;20425;-89
2021/11/07 15:47:40;;;;;;;8.33;4.27;;;8.80;98.30;;;;;;5158398;23;20451;-87
2021/11/07 15:50:14;;;;;;;9.73;4.50;;;8.80;98.30;;;;;;5158209;23;20414;-87
2021/11/07 15:52:27;;;;;;;12.10;5.80;;;8.90;98.30;;;;;;5154578;23;20436;-88
2021/11/07 15:54:35;;;;;;;13.43;5.63;;;8.80;98.30;;;;;;5146508;23;20412;-88
2021/11/07 15:56:41;;;;;;;15.50;6.80;;;8.80;98.30;;;;;;5154058;23;20421;-87
2021/11/07 15:59:01;;;;;;;11.97;4.93;;;8.80;98.30;;;;;;5146245;23;20421;-86
2021/11/07 16:01:18;;;;;;;7.03;3.40;;;8.80;98.30;;;;;;5155346;23;20508;-86
2021/11/07 16:03:29;;;;;;;9.03;3.57;;;8.80;98.30;;;;;;5157937;23;20448;-87
2021/11/07 16:08:18;;;;;;;15.30;3.80;;;8.70;98.30;;;;;;5146051;23;20443;-86
2021/11/07 16:10:27;;;;;;;10.60;3.77;;;8.60;98.30;;;;;;5146855;23;20447;-87
2021/11/07 16:12:40;;;;;;;9.00;3.47;;;8.50;98.30;;;;;;5155311;23;20467;-87
2021/11/07 16:14:55;;;;;;;10.40;3.00;;;8.50;98.30;;;;;;5147295;23;20474;-88
2021/11/07 16:17:08;;;;;;;10.53;4.60;;;8.60;98.30;;;;;;5156034;23;20426;-87
2021/11/07 16:19:15;;;;;;;6.77;2.83;;;8.50;98.30;;;;;;5149388;23;20786;-86
2021/11/07 16:21:21;;;;;;;7.50;4.00;;;8.50;98.30;;;;;;5153725;23;20773;-85
2021/11/07 16:23:25;;;;;;;10.00;3.30;;;8.50;98.30;;;;;;5156242;23;20447;-86
2021/11/07 16:25:28;;;;;;;7.93;3.73;;;8.50;98.30;;;;;;5147563;23;20425;-87
2021/11/07 16:27:35;;;;;;;9.70;3.70;;;8.50;98.30;;;;;;5159117;23;20478;-87
2021/11/07 16:30:01;;;;;;;10.17;3.60;;;8.50;98.30;;;;;;5156221;23;20452;-86
2021/11/07 16:32:15;;;;;;;17.13;5.30;;;8.50;98.30;;;;;;5150064;23;20440;-87
2021/11/07 16:34:19;;;;;;;12.43;3.50;;;8.40;98.30;;;;;;5158632;23;20415;-88
2021/11/07 16:36:45;;;;;;;9.93;3.83;;;8.40;98.30;;;;;;5049834;23;20440;-85
2021/11/07 16:39:10;;;;;;;11.73;4.27;;;8.40;98.30;;;;;;5045036;23;20445;-83
2021/11/07 16:41:21;;;;;;;8.23;3.90;;;8.40;98.30;;;;;;5044765;23;20496;-86
2021/11/07 16:43:29;;;;;;;10.80;4.53;;;8.40;98.30;;;;;;5053301;23;20879;-85
2021/11/07 16:45:34;;;;;;;12.97;4.30;;;8.50;98.30;;;;;;5056811;23;20508;-85
2021/11/07 16:47:45;;;;;;;16.70;9.10;;;8.50;98.30;;;;;;5048794;23;20483;-84
2021/11/07 16:49:49;;;;;;;16.33;5.23;;;8.50;98.30;;;;;;5055382;23;20441;-87
2021/11/07 16:52:32;;;;;;;12.03;4.40;;;8.50;98.30;;;;;;5033479;23;20436;-86
2021/11/07 16:54:38;;;;;;;16.13;5.10;;;8.50;98.30;;;;;;5085450;23;20432;-87